sensor_id;sensor_type;location;lat;lon;timestamp;P1;durP1;ratioP1;P2;durP2;ratioP2
44985;SDS011;30721;49.380;7.736;2022-08-19T00:00:11;22.67;;;20.38;;
44985;SDS011;30721;49.380;7.736;2022-08-19T00:02:40;26.20;;;23.38;;
44985;SDS011;30721;49.380;7.736;2022-08-19T00:05:06;22.50;;;19.65;;
44985;SDS011;30721;49.380;7.736;2022-08-19T00:07:33;22.55;;;20.23;;
44985;SDS011;30721;49.380;7.736;2022-08-19T00:09:58;21.90;;;19.55;;
44985;SDS011;30721;49.380;7.736;2022-08-19T00:12:24;22.13;;;19.75;;
44985;SDS011;30721;49.380;7.736;2022-08-19T00:14:49;23.10;;;20.70;;
44985;SDS011;30721;49.380;7.736;2022-08-19T00:17:14;23.08;;;20.58;;
44985;SDS011;30721;49.380;7.736;2022-08-19T00:19:40;23.38;;;20.88;;
44985;SDS011;30721;49.380;7.736;2022-08-19T00:22:05;22.77;;;20.25;;
44985;SDS011;30721;49.380;7.736;2022-08-19T00:24:33;23.48;;;20.98;;
44985;SDS011;30721;49.380;7.736;2022-08-19T00:26:59;22.70;;;20.33;;
44985;SDS011;30721;49.380;7.736;2022-08-19T00:29:26;19.95;;;17.85;;
44985;SDS011;30721;49.380;7.736;2022-08-19T00:31:52;22.38;;;18.98;;
44985;SDS011;30721;49.380;7.736;2022-08-19T00:34:20;22.23;;;18.77;;
44985;SDS011;30721;49.380;7.736;2022-08-19T00:36:46;21.67;;;19.38;;
44985;SDS011;30721;49.380;7.736;2022-08-19T00:39:13;22.50;;;19.75;;
44985;SDS011;30721;49.380;7.736;2022-08-19T00:41:40;21.13;;;18.92;;
44985;SDS011;30721;49.380;7.736;2022-08-19T00:44:11;22.77;;;20.35;;
44985;SDS011;30721;49.380;7.736;2022-08-19T00:46:39;22.45;;;19.80;;
44985;SDS011;30721;49.380;7.736;2022-08-19T00:49:16;25.30;;;22.38;;
44985;SDS011;30721;49.380;7.736;2022-08-19T00:51:45;23.27;;;20.63;;
44985;SDS011;30721;49.380;7.736;2022-08-19T00:54:12;23.25;;;20.80;;
44985;SDS011;30721;49.380;7.736;2022-08-19T00:56:38;21.85;;;19.30;;
44985;SDS011;30721;49.380;7.736;2022-08-19T00:59:05;22.80;;;20.48;;
44985;SDS011;30721;49.380;7.736;2022-08-19T01:01:40;23.10;;;20.75;;
44985;SDS011;30721;49.380;7.736;2022-08-19T01:04:07;24.83;;;22.20;;
44985;SDS011;30721;49.380;7.736;2022-08-19T01:06:33;25.05;;;22.38;;
44985;SDS011;30721;49.380;7.736;2022-08-19T01:09:00;22.70;;;20.25;;
44985;SDS011;30721;49.380;7.736;2022-08-19T01:11:26;25.55;;;21.75;;
44985;SDS011;30721;49.380;7.736;2022-08-19T01:13:53;25.60;;;22.02;;
44985;SDS011;30721;49.380;7.736;2022-08-19T01:16:20;22.83;;;20.23;;
44985;SDS011;30721;49.380;7.736;2022-08-19T01:18:47;22.95;;;20.52;;
44985;SDS011;30721;49.380;7.736;2022-08-19T01:23:57;25.67;;;21.13;;
44985;SDS011;30721;49.380;7.736;2022-08-19T01:26:23;22.85;;;20.48;;
44985;SDS011;30721;49.380;7.736;2022-08-19T01:28:50;24.85;;;20.67;;
44985;SDS011;30721;49.380;7.736;2022-08-19T01:31:19;24.17;;;21.67;;
44985;SDS011;30721;49.380;7.736;2022-08-19T01:33:46;22.95;;;20.08;;
44985;SDS011;30721;49.380;7.736;2022-08-19T01:36:14;22.77;;;20.38;;
44985;SDS011;30721;49.380;7.736;2022-08-19T01:38:42;24.40;;;21.80;;
44985;SDS011;30721;49.380;7.736;2022-08-19T01:41:08;24.23;;;21.63;;
44985;SDS011;30721;49.380;7.736;2022-08-19T01:43:35;20.65;;;18.52;;
44985;SDS011;30721;49.380;7.736;2022-08-19T01:46:01;23.35;;;20.77;;
44985;SDS011;30721;49.380;7.736;2022-08-19T01:48:32;22.05;;;19.63;;
44985;SDS011;30721;49.380;7.736;2022-08-19T01:51:06;22.15;;;19.85;;
44985;SDS011;30721;49.380;7.736;2022-08-19T01:53:32;21.98;;;19.77;;
44985;SDS011;30721;49.380;7.736;2022-08-19T01:55:57;21.48;;;19.17;;
44985;SDS011;30721;49.380;7.736;2022-08-19T01:58:24;21.48;;;19.17;;
44985;SDS011;30721;49.380;7.736;2022-08-19T02:00:55;23.45;;;20.15;;
44985;SDS011;30721;49.380;7.736;2022-08-19T02:03:20;20.60;;;18.55;;
44985;SDS011;30721;49.380;7.736;2022-08-19T02:05:46;20.23;;;18.23;;
44985;SDS011;30721;49.380;7.736;2022-08-19T02:08:11;19.98;;;17.95;;
44985;SDS011;30721;49.380;7.736;2022-08-19T02:10:38;19.52;;;17.58;;
44985;SDS011;30721;49.380;7.736;2022-08-19T02:13:06;20.52;;;18.55;;
44985;SDS011;30721;49.380;7.736;2022-08-19T02:15:31;20.05;;;18.08;;
44985;SDS011;30721;49.380;7.736;2022-08-19T02:17:57;19.27;;;17.27;;
44985;SDS011;30721;49.380;7.736;2022-08-19T02:20:23;19.73;;;17.80;;
44985;SDS011;30721;49.380;7.736;2022-08-19T02:22:48;19.55;;;17.55;;
44985;SDS011;30721;49.380;7.736;2022-08-19T02:25:14;19.98;;;18.00;;
44985;SDS011;30721;49.380;7.736;2022-08-19T02:27:40;19.88;;;17.88;;
44985;SDS011;30721;49.380;7.736;2022-08-19T02:30:07;20.17;;;18.13;;
44985;SDS011;30721;49.380;7.736;2022-08-19T02:32:35;19.30;;;17.05;;
44985;SDS011;30721;49.380;7.736;2022-08-19T02:35:00;19.42;;;17.50;;
44985;SDS011;30721;49.380;7.736;2022-08-19T02:37:26;20.73;;;18.52;;
44985;SDS011;30721;49.380;7.736;2022-08-19T02:40:10;19.95;;;17.83;;
44985;SDS011;30721;49.380;7.736;2022-08-19T02:42:37;20.55;;;18.15;;
44985;SDS011;30721;49.380;7.736;2022-08-19T02:45:03;20.25;;;18.15;;
44985;SDS011;30721;49.380;7.736;2022-08-19T02:47:30;18.92;;;16.92;;
44985;SDS011;30721;49.380;7.736;2022-08-19T02:49:56;19.52;;;17.40;;
44985;SDS011;30721;49.380;7.736;2022-08-19T02:52:21;18.55;;;16.65;;
44985;SDS011;30721;49.380;7.736;2022-08-19T02:54:48;19.08;;;16.80;;
44985;SDS011;30721;49.380;7.736;2022-08-19T02:57:14;18.52;;;16.63;;
44985;SDS011;30721;49.380;7.736;2022-08-19T02:59:39;17.83;;;16.00;;
44985;SDS011;30721;49.380;7.736;2022-08-19T03:02:05;18.75;;;16.75;;
44985;SDS011;30721;49.380;7.736;2022-08-19T03:04:34;18.15;;;16.30;;
44985;SDS011;30721;49.380;7.736;2022-08-19T03:07:00;16.98;;;15.20;;
44985;SDS011;30721;49.380;7.736;2022-08-19T03:09:26;17.15;;;15.35;;
44985;SDS011;30721;49.380;7.736;2022-08-19T03:11:52;16.67;;;14.95;;
44985;SDS011;30721;49.380;7.736;2022-08-19T03:14:17;16.33;;;14.77;;
44985;SDS011;30721;49.380;7.736;2022-08-19T03:16:44;17.48;;;15.63;;
44985;SDS011;30721;49.380;7.736;2022-08-19T03:19:11;17.73;;;15.60;;
44985;SDS011;30721;49.380;7.736;2022-08-19T03:21:36;16.40;;;14.73;;
44985;SDS011;30721;49.380;7.736;2022-08-19T03:24:05;16.95;;;15.25;;
44985;SDS011;30721;49.380;7.736;2022-08-19T03:26:32;17.90;;;14.82;;
44985;SDS011;30721;49.380;7.736;2022-08-19T03:29:02;15.95;;;14.23;;
44985;SDS011;30721;49.380;7.736;2022-08-19T03:31:29;15.50;;;13.98;;
44985;SDS011;30721;49.380;7.736;2022-08-19T03:33:56;15.23;;;13.70;;
44985;SDS011;30721;49.380;7.736;2022-08-19T03:36:23;18.08;;;16.27;;
44985;SDS011;30721;49.380;7.736;2022-08-19T03:38:51;16.85;;;15.05;;
44985;SDS011;30721;49.380;7.736;2022-08-19T03:41:20;17.52;;;15.23;;
44985;SDS011;30721;49.380;7.736;2022-08-19T03:43:46;17.90;;;16.10;;
44985;SDS011;30721;49.380;7.736;2022-08-19T03:46:14;17.77;;;16.02;;
44985;SDS011;30721;49.380;7.736;2022-08-19T03:48:47;16.92;;;15.23;;
44985;SDS011;30721;49.380;7.736;2022-08-19T03:51:15;17.10;;;15.30;;
44985;SDS011;30721;49.380;7.736;2022-08-19T03:53:42;17.30;;;15.45;;
44985;SDS011;30721;49.380;7.736;2022-08-19T03:56:08;17.17;;;15.48;;
44985;SDS011;30721;49.380;7.736;2022-08-19T03:58:34;16.30;;;14.70;;
44985;SDS011;30721;49.380;7.736;2022-08-19T04:01:00;19.02;;;17.13;;
44985;SDS011;30721;49.380;7.736;2022-08-19T04:03:26;18.02;;;16.17;;
44985;SDS011;30721;49.380;7.736;2022-08-19T04:05:52;16.75;;;14.80;;
44985;SDS011;30721;49.380;7.736;2022-08-19T04:08:18;16.50;;;14.90;;
44985;SDS011;30721;49.380;7.736;2022-08-19T04:10:46;17.55;;;15.70;;
44985;SDS011;30721;49.380;7.736;2022-08-19T04:13:13;17.35;;;15.50;;
44985;SDS011;30721;49.380;7.736;2022-08-19T04:15:40;18.73;;;16.42;;
44985;SDS011;30721;49.380;7.736;2022-08-19T04:18:10;16.95;;;15.20;;
44985;SDS011;30721;49.380;7.736;2022-08-19T04:20:42;16.75;;;15.05;;
44985;SDS011;30721;49.380;7.736;2022-08-19T04:23:09;16.52;;;14.43;;
44985;SDS011;30721;49.380;7.736;2022-08-19T04:25:39;19.52;;;17.50;;
44985;SDS011;30721;49.380;7.736;2022-08-19T04:28:06;19.75;;;17.45;;
44985;SDS011;30721;49.380;7.736;2022-08-19T04:30:36;18.95;;;15.27;;
44985;SDS011;30721;49.380;7.736;2022-08-19T04:33:06;18.85;;;16.88;;
44985;SDS011;30721;49.380;7.736;2022-08-19T04:35:37;19.05;;;17.00;;
44985;SDS011;30721;49.380;7.736;2022-08-19T04:38:03;17.85;;;15.95;;
44985;SDS011;30721;49.380;7.736;2022-08-19T04:40:28;19.73;;;17.05;;
44985;SDS011;30721;49.380;7.736;2022-08-19T04:43:12;19.45;;;17.38;;
44985;SDS011;30721;49.380;7.736;2022-08-19T04:45:39;19.00;;;17.00;;
44985;SDS011;30721;49.380;7.736;2022-08-19T04:48:05;17.77;;;15.88;;
44985;SDS011;30721;49.380;7.736;2022-08-19T04:50:30;18.45;;;16.55;;
44985;SDS011;30721;49.380;7.736;2022-08-19T04:52:56;17.15;;;15.45;;
44985;SDS011;30721;49.380;7.736;2022-08-19T04:55:21;17.27;;;15.45;;
44985;SDS011;30721;49.380;7.736;2022-08-19T04:57:47;18.65;;;16.50;;
44985;SDS011;30721;49.380;7.736;2022-08-19T05:00:12;18.25;;;16.35;;
44985;SDS011;30721;49.380;7.736;2022-08-19T05:02:38;17.80;;;16.00;;
44985;SDS011;30721;49.380;7.736;2022-08-19T05:05:04;18.48;;;16.42;;
44985;SDS011;30721;49.380;7.736;2022-08-19T05:07:31;20.35;;;16.80;;
44985;SDS011;30721;49.380;7.736;2022-08-19T05:09:56;17.80;;;15.98;;
44985;SDS011;30721;49.380;7.736;2022-08-19T05:12:22;18.48;;;15.85;;
44985;SDS011;30721;49.380;7.736;2022-08-19T05:14:47;18.95;;;16.88;;
44985;SDS011;30721;49.380;7.736;2022-08-19T05:17:14;17.45;;;15.55;;
44985;SDS011;30721;49.380;7.736;2022-08-19T05:19:40;17.83;;;15.52;;
44985;SDS011;30721;49.380;7.736;2022-08-19T05:22:24;15.23;;;13.73;;
44985;SDS011;30721;49.380;7.736;2022-08-19T05:25:06;16.02;;;14.30;;
44985;SDS011;30721;49.380;7.736;2022-08-19T05:27:34;16.38;;;14.23;;
44985;SDS011;30721;49.380;7.736;2022-08-19T05:29:59;14.75;;;13.35;;
44985;SDS011;30721;49.380;7.736;2022-08-19T05:32:25;15.40;;;13.85;;
44985;SDS011;30721;49.380;7.736;2022-08-19T05:34:50;14.35;;;12.93;;
44985;SDS011;30721;49.380;7.736;2022-08-19T05:37:16;14.35;;;12.93;;
44985;SDS011;30721;49.380;7.736;2022-08-19T05:39:42;15.13;;;13.38;;
44985;SDS011;30721;49.380;7.736;2022-08-19T05:42:08;15.25;;;13.55;;
44985;SDS011;30721;49.380;7.736;2022-08-19T05:44:36;14.40;;;12.77;;
44985;SDS011;30721;49.380;7.736;2022-08-19T05:47:04;14.32;;;12.93;;
44985;SDS011;30721;49.380;7.736;2022-08-19T05:49:31;14.43;;;12.80;;
44985;SDS011;30721;49.380;7.736;2022-08-19T05:51:58;15.02;;;13.48;;
44985;SDS011;30721;49.380;7.736;2022-08-19T05:54:24;15.15;;;13.35;;
44985;SDS011;30721;49.380;7.736;2022-08-19T05:56:50;12.88;;;11.57;;
44985;SDS011;30721;49.380;7.736;2022-08-19T05:59:17;14.30;;;12.25;;
44985;SDS011;30721;49.380;7.736;2022-08-19T06:01:45;14.30;;;12.77;;
44985;SDS011;30721;49.380;7.736;2022-08-19T06:04:11;12.73;;;11.43;;
44985;SDS011;30721;49.380;7.736;2022-08-19T06:06:38;13.57;;;12.00;;
44985;SDS011;30721;49.380;7.736;2022-08-19T06:09:05;13.55;;;12.20;;
44985;SDS011;30721;49.380;7.736;2022-08-19T06:11:32;13.02;;;10.82;;
44985;SDS011;30721;49.380;7.736;2022-08-19T06:14:00;14.68;;;11.20;;
44985;SDS011;30721;49.380;7.736;2022-08-19T06:16:27;12.20;;;11.00;;
44985;SDS011;30721;49.380;7.736;2022-08-19T06:18:54;12.93;;;11.60;;
44985;SDS011;30721;49.380;7.736;2022-08-19T06:21:23;13.73;;;12.30;;
44985;SDS011;30721;49.380;7.736;2022-08-19T06:23:50;13.70;;;12.30;;
44985;SDS011;30721;49.380;7.736;2022-08-19T06:26:16;14.15;;;12.63;;
44985;SDS011;30721;49.380;7.736;2022-08-19T06:28:43;14.27;;;12.73;;
44985;SDS011;30721;49.380;7.736;2022-08-19T06:31:11;16.48;;;11.15;;
44985;SDS011;30721;49.380;7.736;2022-08-19T06:33:39;13.95;;;12.13;;
44985;SDS011;30721;49.380;7.736;2022-08-19T06:36:04;11.27;;;10.15;;
44985;SDS011;30721;49.380;7.736;2022-08-19T06:38:30;13.10;;;11.80;;
44985;SDS011;30721;49.380;7.736;2022-08-19T06:41:03;13.18;;;12.00;;
44985;SDS011;30721;49.380;7.736;2022-08-19T06:43:29;14.02;;;12.63;;
44985;SDS011;30721;49.380;7.736;2022-08-19T06:45:55;13.73;;;12.32;;
44985;SDS011;30721;49.380;7.736;2022-08-19T06:48:20;11.60;;;10.50;;
44985;SDS011;30721;49.380;7.736;2022-08-19T06:50:45;14.50;;;11.93;;
44985;SDS011;30721;49.380;7.736;2022-08-19T06:53:12;14.27;;;12.80;;
44985;SDS011;30721;49.380;7.736;2022-08-19T06:55:37;13.07;;;11.75;;
44985;SDS011;30721;49.380;7.736;2022-08-19T06:58:04;12.73;;;11.48;;
44985;SDS011;30721;49.380;7.736;2022-08-19T07:00:30;16.70;;;14.05;;
44985;SDS011;30721;49.380;7.736;2022-08-19T07:02:55;13.00;;;11.65;;
44985;SDS011;30721;49.380;7.736;2022-08-19T07:05:21;13.48;;;12.00;;
44985;SDS011;30721;49.380;7.736;2022-08-19T07:07:46;14.93;;;12.70;;
44985;SDS011;30721;49.380;7.736;2022-08-19T07:10:12;19.58;;;14.90;;
44985;SDS011;30721;49.380;7.736;2022-08-19T07:12:37;16.20;;;13.38;;
44985;SDS011;30721;49.380;7.736;2022-08-19T07:15:03;13.35;;;11.90;;
44985;SDS011;30721;49.380;7.736;2022-08-19T07:17:30;12.45;;;11.25;;
44985;SDS011;30721;49.380;7.736;2022-08-19T07:19:55;14.23;;;12.82;;
44985;SDS011;30721;49.380;7.736;2022-08-19T07:22:21;13.00;;;11.63;;
44985;SDS011;30721;49.380;7.736;2022-08-19T07:24:50;17.35;;;13.48;;
44985;SDS011;30721;49.380;7.736;2022-08-19T07:27:16;13.32;;;11.05;;
44985;SDS011;30721;49.380;7.736;2022-08-19T07:29:42;17.20;;;13.20;;
44985;SDS011;30721;49.380;7.736;2022-08-19T07:32:07;12.45;;;11.27;;
44985;SDS011;30721;49.380;7.736;2022-08-19T07:34:34;14.10;;;12.60;;
44985;SDS011;30721;49.380;7.736;2022-08-19T07:37:03;12.68;;;11.10;;
44985;SDS011;30721;49.380;7.736;2022-08-19T07:39:30;14.25;;;12.75;;
44985;SDS011;30721;49.380;7.736;2022-08-19T07:41:57;13.73;;;11.88;;
44985;SDS011;30721;49.380;7.736;2022-08-19T07:44:24;14.55;;;13.15;;
44985;SDS011;30721;49.380;7.736;2022-08-19T07:46:51;13.57;;;12.32;;
44985;SDS011;30721;49.380;7.736;2022-08-19T07:49:20;15.63;;;14.13;;
44985;SDS011;30721;49.380;7.736;2022-08-19T07:51:48;15.13;;;13.63;;
44985;SDS011;30721;49.380;7.736;2022-08-19T07:54:17;15.30;;;13.90;;
44985;SDS011;30721;49.380;7.736;2022-08-19T07:56:44;15.23;;;13.38;;
44985;SDS011;30721;49.380;7.736;2022-08-19T07:59:09;14.63;;;13.23;;
44985;SDS011;30721;49.380;7.736;2022-08-19T08:01:35;16.05;;;14.38;;
44985;SDS011;30721;49.380;7.736;2022-08-19T08:04:01;14.48;;;12.98;;
44985;SDS011;30721;49.380;7.736;2022-08-19T08:06:45;14.73;;;13.23;;
44985;SDS011;30721;49.380;7.736;2022-08-19T08:09:32;16.83;;;14.25;;
44985;SDS011;30721;49.380;7.736;2022-08-19T08:12:01;16.15;;;14.40;;
44985;SDS011;30721;49.380;7.736;2022-08-19T08:14:40;14.70;;;13.20;;
44985;SDS011;30721;49.380;7.736;2022-08-19T08:17:08;15.68;;;14.15;;
44985;SDS011;30721;49.380;7.736;2022-08-19T08:19:35;15.45;;;13.93;;
44985;SDS011;30721;49.380;7.736;2022-08-19T08:22:02;16.83;;;14.75;;
44985;SDS011;30721;49.380;7.736;2022-08-19T08:24:29;15.30;;;13.70;;
44985;SDS011;30721;49.380;7.736;2022-08-19T08:26:55;13.25;;;11.93;;
44985;SDS011;30721;49.380;7.736;2022-08-19T08:29:22;14.55;;;13.10;;
44985;SDS011;30721;49.380;7.736;2022-08-19T08:31:48;15.10;;;13.60;;
44985;SDS011;30721;49.380;7.736;2022-08-19T08:34:13;16.33;;;14.70;;
44985;SDS011;30721;49.380;7.736;2022-08-19T08:36:40;16.20;;;14.55;;
44985;SDS011;30721;49.380;7.736;2022-08-19T08:39:25;16.23;;;14.48;;
44985;SDS011;30721;49.380;7.736;2022-08-19T08:47:24;14.05;;;12.75;;
44985;SDS011;30721;49.380;7.736;2022-08-19T08:52:26;13.52;;;12.27;;
44985;SDS011;30721;49.380;7.736;2022-08-19T08:54:55;14.57;;;13.10;;
44985;SDS011;30721;49.380;7.736;2022-08-19T08:57:32;14.65;;;13.35;;
44985;SDS011;30721;49.380;7.736;2022-08-19T09:00:03;15.38;;;13.85;;
44985;SDS011;30721;49.380;7.736;2022-08-19T09:02:31;15.43;;;13.93;;
44985;SDS011;30721;49.380;7.736;2022-08-19T09:04:57;15.07;;;13.57;;
44985;SDS011;30721;49.380;7.736;2022-08-19T09:08:06;16.55;;;14.18;;
44985;SDS011;30721;49.380;7.736;2022-08-19T09:10:29;15.48;;;14.02;;
44985;SDS011;30721;49.380;7.736;2022-08-19T09:13:20;14.35;;;12.98;;
44985;SDS011;30721;49.380;7.736;2022-08-19T09:16:08;15.38;;;13.98;;
44985;SDS011;30721;49.380;7.736;2022-08-19T09:18:40;15.02;;;13.73;;
44985;SDS011;30721;49.380;7.736;2022-08-19T09:21:09;14.57;;;13.18;;
44985;SDS011;30721;49.380;7.736;2022-08-19T09:23:35;12.35;;;11.25;;
44985;SDS011;30721;49.380;7.736;2022-08-19T09:26:04;11.73;;;10.73;;
44985;SDS011;30721;49.380;7.736;2022-08-19T09:28:34;10.65;;;9.70;;
44985;SDS011;30721;49.380;7.736;2022-08-19T09:31:02;11.32;;;10.32;;
44985;SDS011;30721;49.380;7.736;2022-08-19T09:33:27;10.43;;;9.20;;
44985;SDS011;30721;49.380;7.736;2022-08-19T09:36:01;7.35;;;6.75;;
44985;SDS011;30721;49.380;7.736;2022-08-19T09:38:34;6.93;;;6.32;;
44985;SDS011;30721;49.380;7.736;2022-08-19T09:41:04;5.95;;;5.45;;
44985;SDS011;30721;49.380;7.736;2022-08-19T09:43:30;5.30;;;4.90;;
44985;SDS011;30721;49.380;7.736;2022-08-19T09:45:56;6.50;;;5.00;;
44985;SDS011;30721;49.380;7.736;2022-08-19T09:48:22;5.18;;;4.75;;
44985;SDS011;30721;49.380;7.736;2022-08-19T09:50:47;5.93;;;5.05;;
44985;SDS011;30721;49.380;7.736;2022-08-19T09:53:13;5.68;;;5.28;;
44985;SDS011;30721;49.380;7.736;2022-08-19T09:55:42;5.90;;;5.40;;
44985;SDS011;30721;49.380;7.736;2022-08-19T09:58:08;5.80;;;5.28;;
44985;SDS011;30721;49.380;7.736;2022-08-19T10:00:33;6.47;;;5.97;;
44985;SDS011;30721;49.380;7.736;2022-08-19T10:02:59;5.97;;;5.57;;
44985;SDS011;30721;49.380;7.736;2022-08-19T10:05:24;5.65;;;5.25;;
44985;SDS011;30721;49.380;7.736;2022-08-19T10:08:09;6.88;;;6.00;;
44985;SDS011;30721;49.380;7.736;2022-08-19T10:10:35;5.53;;;4.85;;
44985;SDS011;30721;49.380;7.736;2022-08-19T10:13:01;5.93;;;5.45;;
44985;SDS011;30721;49.380;7.736;2022-08-19T10:15:26;5.63;;;5.13;;
44985;SDS011;30721;49.380;7.736;2022-08-19T10:17:52;6.88;;;6.28;;
44985;SDS011;30721;49.380;7.736;2022-08-19T10:20:17;6.25;;;5.78;;
44985;SDS011;30721;49.380;7.736;2022-08-19T10:22:43;6.97;;;6.28;;
44985;SDS011;30721;49.380;7.736;2022-08-19T10:25:09;6.45;;;5.95;;
44985;SDS011;30721;49.380;7.736;2022-08-19T10:27:34;6.35;;;5.85;;
44985;SDS011;30721;49.380;7.736;2022-08-19T10:30:00;5.70;;;5.30;;
44985;SDS011;30721;49.380;7.736;2022-08-19T10:32:26;6.00;;;5.45;;
44985;SDS011;30721;49.380;7.736;2022-08-19T10:34:52;6.03;;;5.45;;
44985;SDS011;30721;49.380;7.736;2022-08-19T10:37:17;5.40;;;4.95;;
44985;SDS011;30721;49.380;7.736;2022-08-19T10:39:45;5.50;;;5.07;;
44985;SDS011;30721;49.380;7.736;2022-08-19T10:42:12;5.15;;;4.80;;
44985;SDS011;30721;49.380;7.736;2022-08-19T10:44:38;5.70;;;4.90;;
44985;SDS011;30721;49.380;7.736;2022-08-19T10:47:04;5.70;;;5.20;;
44985;SDS011;30721;49.380;7.736;2022-08-19T10:49:30;5.65;;;5.13;;
44985;SDS011;30721;49.380;7.736;2022-08-19T10:51:55;5.30;;;4.82;;
44985;SDS011;30721;49.380;7.736;2022-08-19T10:54:40;5.22;;;4.93;;
44985;SDS011;30721;49.380;7.736;2022-08-19T10:57:24;5.13;;;4.73;;
44985;SDS011;30721;49.380;7.736;2022-08-19T10:59:54;5.90;;;4.80;;
44985;SDS011;30721;49.380;7.736;2022-08-19T11:02:20;5.22;;;4.93;;
44985;SDS011;30721;49.380;7.736;2022-08-19T11:04:46;5.28;;;4.78;;
44985;SDS011;30721;49.380;7.736;2022-08-19T11:07:14;4.88;;;4.55;;
44985;SDS011;30721;49.380;7.736;2022-08-19T11:09:41;4.47;;;4.18;;
44985;SDS011;30721;49.380;7.736;2022-08-19T11:12:07;4.65;;;4.35;;
44985;SDS011;30721;49.380;7.736;2022-08-19T11:14:33;7.78;;;5.05;;
44985;SDS011;30721;49.380;7.736;2022-08-19T11:16:59;4.70;;;4.30;;
44985;SDS011;30721;49.380;7.736;2022-08-19T11:19:25;4.40;;;4.10;;
44985;SDS011;30721;49.380;7.736;2022-08-19T11:21:51;4.88;;;4.47;;
44985;SDS011;30721;49.380;7.736;2022-08-19T11:24:22;4.60;;;4.30;;
44985;SDS011;30721;49.380;7.736;2022-08-19T11:26:50;4.13;;;3.83;;
44985;SDS011;30721;49.380;7.736;2022-08-19T11:29:17;4.82;;;4.43;;
44985;SDS011;30721;49.380;7.736;2022-08-19T11:31:46;4.13;;;3.83;;
44985;SDS011;30721;49.380;7.736;2022-08-19T11:34:17;4.72;;;4.40;;
44985;SDS011;30721;49.380;7.736;2022-08-19T11:36:44;4.75;;;4.35;;
44985;SDS011;30721;49.380;7.736;2022-08-19T11:39:12;4.07;;;3.88;;
44985;SDS011;30721;49.380;7.736;2022-08-19T11:41:40;4.18;;;3.85;;
44985;SDS011;30721;49.380;7.736;2022-08-19T11:44:06;3.92;;;3.72;;
44985;SDS011;30721;49.380;7.736;2022-08-19T11:46:32;4.43;;;4.03;;
44985;SDS011;30721;49.380;7.736;2022-08-19T11:48:59;4.30;;;3.90;;
44985;SDS011;30721;49.380;7.736;2022-08-19T11:51:25;4.20;;;3.85;;
44985;SDS011;30721;49.380;7.736;2022-08-19T11:53:54;4.35;;;4.05;;
44985;SDS011;30721;49.380;7.736;2022-08-19T11:56:21;4.03;;;3.65;;
44985;SDS011;30721;49.380;7.736;2022-08-19T11:58:47;3.92;;;3.63;;
44985;SDS011;30721;49.380;7.736;2022-08-19T12:01:14;4.22;;;3.92;;
44985;SDS011;30721;49.380;7.736;2022-08-19T12:03:43;4.25;;;3.95;;
44985;SDS011;30721;49.380;7.736;2022-08-19T12:06:11;3.83;;;3.63;;
44985;SDS011;30721;49.380;7.736;2022-08-19T12:08:42;3.90;;;3.60;;
44985;SDS011;30721;49.380;7.736;2022-08-19T12:11:08;3.83;;;3.53;;
44985;SDS011;30721;49.380;7.736;2022-08-19T12:13:34;3.60;;;3.40;;
44985;SDS011;30721;49.380;7.736;2022-08-19T12:16:00;3.83;;;3.63;;
44985;SDS011;30721;49.380;7.736;2022-08-19T12:18:26;3.60;;;3.40;;
44985;SDS011;30721;49.380;7.736;2022-08-19T12:20:52;3.90;;;3.60;;
44985;SDS011;30721;49.380;7.736;2022-08-19T12:23:19;3.97;;;3.67;;
44985;SDS011;30721;49.380;7.736;2022-08-19T12:25:46;3.65;;;3.42;;
44985;SDS011;30721;49.380;7.736;2022-08-19T12:28:20;3.72;;;3.53;;
44985;SDS011;30721;49.380;7.736;2022-08-19T12:30:47;3.65;;;3.45;;
44985;SDS011;30721;49.380;7.736;2022-08-19T12:33:13;3.80;;;3.50;;
44985;SDS011;30721;49.380;7.736;2022-08-19T12:35:39;4.10;;;3.80;;
44985;SDS011;30721;49.380;7.736;2022-08-19T12:38:06;4.38;;;4.07;;
44985;SDS011;30721;49.380;7.736;2022-08-19T12:40:31;4.32;;;4.03;;
44985;SDS011;30721;49.380;7.736;2022-08-19T12:42:57;3.75;;;3.40;;
44985;SDS011;30721;49.380;7.736;2022-08-19T12:45:23;4.30;;;4.00;;
44985;SDS011;30721;49.380;7.736;2022-08-19T12:47:49;4.32;;;3.95;;
44985;SDS011;30721;49.380;7.736;2022-08-19T12:50:15;4.03;;;3.72;;
44985;SDS011;30721;49.380;7.736;2022-08-19T12:52:40;4.57;;;4.18;;
44985;SDS011;30721;49.380;7.736;2022-08-19T12:55:07;4.25;;;3.85;;
44985;SDS011;30721;49.380;7.736;2022-08-19T12:57:33;4.30;;;4.00;;
44985;SDS011;30721;49.380;7.736;2022-08-19T13:00:03;4.30;;;4.00;;
44985;SDS011;30721;49.380;7.736;2022-08-19T13:02:33;4.03;;;3.72;;
44985;SDS011;30721;49.380;7.736;2022-08-19T13:05:00;4.38;;;4.00;;
44985;SDS011;30721;49.380;7.736;2022-08-19T13:07:25;3.72;;;3.42;;
44985;SDS011;30721;49.380;7.736;2022-08-19T13:09:51;3.78;;;3.47;;
44985;SDS011;30721;49.380;7.736;2022-08-19T13:12:17;4.20;;;3.75;;
44985;SDS011;30721;49.380;7.736;2022-08-19T13:14:46;4.28;;;3.97;;
44985;SDS011;30721;49.380;7.736;2022-08-19T13:17:15;4.35;;;4.00;;
44985;SDS011;30721;49.380;7.736;2022-08-19T13:19:40;4.03;;;3.72;;
44985;SDS011;30721;49.380;7.736;2022-08-19T13:22:06;4.15;;;3.85;;
44985;SDS011;30721;49.380;7.736;2022-08-19T13:24:31;4.28;;;3.88;;
44985;SDS011;30721;49.380;7.736;2022-08-19T13:26:58;3.83;;;3.42;;
44985;SDS011;30721;49.380;7.736;2022-08-19T13:29:24;3.83;;;3.53;;
44985;SDS011;30721;49.380;7.736;2022-08-19T13:32:08;4.27;;;3.97;;
44985;SDS011;30721;49.380;7.736;2022-08-19T13:34:52;4.10;;;3.80;;
44985;SDS011;30721;49.380;7.736;2022-08-19T13:37:18;4.78;;;4.38;;
44985;SDS011;30721;49.380;7.736;2022-08-19T13:40:03;3.95;;;3.60;;
44985;SDS011;30721;49.380;7.736;2022-08-19T13:42:29;3.67;;;3.38;;
44985;SDS011;30721;49.380;7.736;2022-08-19T13:44:56;4.28;;;3.97;;
44985;SDS011;30721;49.380;7.736;2022-08-19T13:47:21;3.70;;;3.40;;
44985;SDS011;30721;49.380;7.736;2022-08-19T13:49:47;4.10;;;3.78;;
44985;SDS011;30721;49.380;7.736;2022-08-19T13:52:13;3.97;;;3.60;;
44985;SDS011;30721;49.380;7.736;2022-08-19T13:54:38;3.92;;;3.63;;
44985;SDS011;30721;49.380;7.736;2022-08-19T13:57:03;4.00;;;3.70;;
44985;SDS011;30721;49.380;7.736;2022-08-19T13:59:29;3.90;;;3.60;;
44985;SDS011;30721;49.380;7.736;2022-08-19T14:01:57;4.20;;;3.35;;
44985;SDS011;30721;49.380;7.736;2022-08-19T14:04:23;3.72;;;3.45;;
44985;SDS011;30721;49.380;7.736;2022-08-19T14:06:48;3.50;;;3.30;;
44985;SDS011;30721;49.380;7.736;2022-08-19T14:09:14;3.42;;;3.22;;
44985;SDS011;30721;49.380;7.736;2022-08-19T14:11:39;3.40;;;3.20;;
44985;SDS011;30721;49.380;7.736;2022-08-19T14:14:04;6.47;;;3.80;;
44985;SDS011;30721;49.380;7.736;2022-08-19T14:16:30;3.90;;;3.60;;
44985;SDS011;30721;49.380;7.736;2022-08-19T14:18:55;3.85;;;3.55;;
44985;SDS011;30721;49.380;7.736;2022-08-19T14:21:21;3.75;;;3.45;;
44985;SDS011;30721;49.380;7.736;2022-08-19T14:23:48;3.60;;;3.40;;
44985;SDS011;30721;49.380;7.736;2022-08-19T14:26:15;4.10;;;3.80;;
44985;SDS011;30721;49.380;7.736;2022-08-19T14:28:42;4.03;;;3.72;;
44985;SDS011;30721;49.380;7.736;2022-08-19T14:31:12;3.40;;;3.20;;
44985;SDS011;30721;49.380;7.736;2022-08-19T14:33:39;3.90;;;3.60;;
44985;SDS011;30721;49.380;7.736;2022-08-19T14:36:05;4.55;;;3.90;;
44985;SDS011;30721;49.380;7.736;2022-08-19T14:38:30;3.38;;;3.17;;
44985;SDS011;30721;49.380;7.736;2022-08-19T14:41:09;3.65;;;3.45;;
44985;SDS011;30721;49.380;7.736;2022-08-19T14:43:38;3.63;;;3.42;;